Time;durP1;ratioP1;P1;durP2;ratioP2;P2;SDS_P1;SDS_P2;PMS_P1;PMS_P2;Temp;Humidity;BMP_temperature;BMP_pressure;BME280_temperature;BME280_humidity;BME280_pressure;Samples;Min_cycle;Max_cycle;Signal;HPM_P1;HPM_P2
2022/12/03 00:02:17;;;;;;;13.30;8.80;;;;;;;;;;5008761;28;20310;-28
2022/12/03 00:04:44;;;;;;;14.47;8.73;;;;;;;;;;5023831;28;20286;-29
2022/12/03 00:07:11;;;;;;;15.03;8.73;;;;;;;;;;5022295;28;20294;-27
2022/12/03 00:09:40;;;;;;;16.37;9.93;;;;;;;;;;5008029;28;20293;-29
2022/12/03 00:12:09;;;;;;;13.47;8.73;;;;;;;;;;5011147;28;20231;-28
2022/12/03 00:14:36;;;;;;;14.80;8.43;;;;;;;;;;5016393;28;20221;-28
2022/12/03 00:17:04;;;;;;;13.70;8.33;;;;;;;;;;5014720;28;20587;-28
2022/12/03 00:19:31;;;;;;;16.10;9.10;;;;;;;;;;5028099;28;20212;-27
2022/12/03 00:21:58;;;;;;;14.80;9.23;;;;;;;;;;5019592;28;20227;-28
2022/12/03 00:24:25;;;;;;;15.17;9.33;;;;;;;;;;5014536;28;20208;-30
2022/12/03 00:26:53;;;;;;;14.57;9.40;;;;;;;;;;5017075;28;20200;-30
2022/12/03 00:29:20;;;;;;;16.37;9.67;;;;;;;;;;5030357;28;20200;-27
2022/12/03 00:31:48;;;;;;;16.63;8.97;;;;;;;;;;5022060;28;20232;-29
2022/12/03 00:34:15;;;;;;;17.07;9.73;;;;;;;;;;5023129;28;20252;-28
2022/12/03 00:36:43;;;;;;;14.47;8.77;;;;;;;;;;5005497;28;20206;-27
2022/12/03 00:39:10;;;;;;;14.30;8.77;;;;;;;;;;5015026;28;20664;-29
2022/12/03 00:41:37;;;;;;;14.83;8.73;;;;;;;;;;5022720;28;20230;-27
2022/12/03 00:44:06;;;;;;;18.13;8.33;;;;;;;;;;5014600;28;20510;-29
2022/12/03 00:46:33;;;;;;;15.77;9.30;;;;;;;;;;5009540;28;20661;-27
2022/12/03 00:49:00;;;;;;;14.43;8.53;;;;;;;;;;5027026;28;20202;-28
2022/12/03 00:51:27;;;;;;;12.30;8.00;;;;;;;;;;5014304;28;20237;-30
2022/12/03 00:53:54;;;;;;;14.30;8.73;;;;;;;;;;4996692;28;20228;-27
2022/12/03 00:56:21;;;;;;;12.60;8.40;;;;;;;;;;5017028;28;20204;-28
2022/12/03 00:58:48;;;;;;;13.90;8.30;;;;;;;;;;5012628;28;20203;-28
2022/12/03 01:01:17;;;;;;;14.13;8.87;;;;;;;;;;5009878;28;20708;-26
2022/12/03 01:03:47;;;;;;;15.87;9.17;;;;;;;;;;5022881;28;20203;-27
2022/12/03 01:06:14;;;;;;;13.03;7.90;;;;;;;;;;5011808;28;20290;-28
2022/12/03 01:08:41;;;;;;;15.80;9.27;;;;;;;;;;5005032;28;20208;-27
2022/12/03 01:11:36;;;;;;;15.50;8.60;;;;;;;;;;5014288;28;20226;-28
2022/12/03 01:13:55;;;;;;;13.07;8.50;;;;;;;;;;5013348;28;20223;-29
2022/12/03 01:16:24;;;;;;;15.00;8.47;;;;;;;;;;5003224;28;20218;-28
2022/12/03 01:18:51;;;;;;;15.83;8.60;;;;;;;;;;5028748;28;20206;-29
2022/12/03 01:21:19;;;;;;;14.57;7.63;;;;;;;;;;5018652;28;20222;-27
2022/12/03 01:23:46;;;;;;;12.27;8.40;;;;;;;;;;5012214;28;20667;-28
2022/12/03 01:26:13;;;;;;;16.43;8.57;;;;;;;;;;5001645;28;20212;-29
2022/12/03 01:28:40;;;;;;;11.40;7.70;;;;;;;;;;5019151;28;20290;-29
2022/12/03 01:34:06;;;;;;;13.77;8.10;;;;;;;;;;4961324;28;20221;-27
2022/12/03 01:36:34;;;;;;;13.20;8.20;;;;;;;;;;4999110;28;20208;-28
2022/12/03 01:39:01;;;;;;;14.17;8.57;;;;;;;;;;5013363;28;20207;-30
2022/12/03 01:41:28;;;;;;;15.03;8.03;;;;;;;;;;5002220;28;20285;-28
2022/12/03 01:43:56;;;;;;;12.40;7.80;;;;;;;;;;5011775;28;20294;-27
2022/12/03 01:46:25;;;;;;;13.00;7.87;;;;;;;;;;5003263;28;20219;-28
2022/12/03 01:48:53;;;;;;;11.70;8.23;;;;;;;;;;5012752;28;20772;-29
2022/12/03 01:51:21;;;;;;;11.97;7.93;;;;;;;;;;5013902;28;20314;-28
2022/12/03 01:53:48;;;;;;;13.60;7.80;;;;;;;;;;5009855;28;20223;-29
2022/12/03 01:56:16;;;;;;;12.33;7.20;;;;;;;;;;5005254;28;20214;-29
2022/12/03 01:58:44;;;;;;;11.60;7.27;;;;;;;;;;5004803;28;20654;-28
2022/12/03 02:01:26;;;;;;;10.93;7.13;;;;;;;;;;4997536;28;20322;-27
2022/12/03 02:03:53;;;;;;;12.20;7.60;;;;;;;;;;5018356;28;20198;-27
2022/12/03 02:06:23;;;;;;;12.83;6.83;;;;;;;;;;5016939;28;20561;-28
2022/12/03 02:08:57;;;;;;;12.53;7.57;;;;;;;;;;5029975;28;20297;-28
2022/12/03 02:11:26;;;;;;;11.83;6.93;;;;;;;;;;5008840;28;20289;-29
2022/12/03 02:13:55;;;;;;;12.60;7.73;;;;;;;;;;5007610;28;20779;-29
2022/12/03 02:16:23;;;;;;;15.53;7.87;;;;;;;;;;5010299;28;20199;-27
2022/12/03 02:18:50;;;;;;;13.53;8.47;;;;;;;;;;5015051;28;20211;-28
2022/12/03 02:21:19;;;;;;;14.00;8.13;;;;;;;;;;5010320;28;20323;-28
2022/12/03 02:23:52;;;;;;;13.43;8.20;;;;;;;;;;4993909;28;20206;-27
2022/12/03 02:26:21;;;;;;;12.63;7.70;;;;;;;;;;4998181;28;20295;-31
2022/12/03 02:28:48;;;;;;;12.70;7.73;;;;;;;;;;5013068;28;20249;-27
2022/12/03 02:31:17;;;;;;;14.93;7.70;;;;;;;;;;5009271;28;20226;-28
2022/12/03 02:33:44;;;;;;;14.10;7.50;;;;;;;;;;5020834;28;20214;-29
2022/12/03 02:36:11;;;;;;;16.43;8.77;;;;;;;;;;4999535;28;20567;-28
2022/12/03 02:38:39;;;;;;;15.20;8.80;;;;;;;;;;5007205;28;20224;-27
2022/12/03 02:41:08;;;;;;;13.93;7.90;;;;;;;;;;5021415;28;20226;-29
2022/12/03 02:43:36;;;;;;;13.43;7.83;;;;;;;;;;5033484;28;20209;-29
2022/12/03 02:46:04;;;;;;;15.20;7.03;;;;;;;;;;5010307;28;20207;-29
2022/12/03 02:48:34;;;;;;;13.37;7.33;;;;;;;;;;5022438;28;20677;-29
2022/12/03 02:51:03;;;;;;;13.83;8.20;;;;;;;;;;5017396;28;20219;-29
2022/12/03 02:53:32;;;;;;;15.23;8.03;;;;;;;;;;5001048;28;20214;-27
2022/12/03 02:56:01;;;;;;;15.50;8.57;;;;;;;;;;5015666;28;20211;-29
2022/12/03 02:58:29;;;;;;;15.63;8.37;;;;;;;;;;5031898;28;20202;-27
2022/12/03 03:00:59;;;;;;;13.43;7.70;;;;;;;;;;5022105;28;20237;-28
2022/12/03 03:03:26;;;;;;;12.63;7.57;;;;;;;;;;5020023;28;20226;-29
2022/12/03 03:05:55;;;;;;;15.57;8.37;;;;;;;;;;5016469;28;20283;-26
2022/12/03 03:08:23;;;;;;;11.97;7.73;;;;;;;;;;5026234;28;20198;-28
2022/12/03 03:10:50;;;;;;;13.53;8.33;;;;;;;;;;5005074;28;20222;-28
2022/12/03 03:13:19;;;;;;;16.03;8.60;;;;;;;;;;5024517;28;20198;-27
2022/12/03 03:15:47;;;;;;;13.73;8.23;;;;;;;;;;5014935;28;20681;-28
2022/12/03 03:18:16;;;;;;;15.67;8.90;;;;;;;;;;5015308;28;20213;-27
2022/12/03 03:20:43;;;;;;;12.23;7.80;;;;;;;;;;5017410;28;20231;-27
2022/12/03 03:23:14;;;;;;;12.37;7.47;;;;;;;;;;5017120;28;20215;-30
2022/12/03 03:25:43;;;;;;;12.80;7.70;;;;;;;;;;5003218;28;20709;-29
2022/12/03 03:28:10;;;;;;;13.57;8.17;;;;;;;;;;5015913;28;20274;-28
2022/12/03 03:30:39;;;;;;;13.60;7.87;;;;;;;;;;5013643;28;20234;-29
2022/12/03 03:33:06;;;;;;;14.13;8.53;;;;;;;;;;5019520;28;20223;-28
2022/12/03 03:35:35;;;;;;;12.43;7.67;;;;;;;;;;5011706;28;20682;-28
2022/12/03 03:38:02;;;;;;;12.63;7.77;;;;;;;;;;5010985;28;20202;-29
2022/12/03 03:40:32;;;;;;;12.57;7.77;;;;;;;;;;5020908;28;20248;-29
2022/12/03 03:43:00;;;;;;;13.20;7.93;;;;;;;;;;5033034;28;20589;-27
2022/12/03 03:45:27;;;;;;;13.10;7.13;;;;;;;;;;5012451;28;20659;-27
2022/12/03 03:47:54;;;;;;;12.07;7.90;;;;;;;;;;5011862;28;20221;-28
2022/12/03 03:50:22;;;;;;;12.30;7.57;;;;;;;;;;5015451;28;20223;-28
2022/12/03 03:52:52;;;;;;;13.40;7.97;;;;;;;;;;5015958;28;20203;-28
2022/12/03 03:55:19;;;;;;;14.10;8.70;;;;;;;;;;5006339;28;20224;-28
2022/12/03 03:57:46;;;;;;;14.17;7.83;;;;;;;;;;5014699;28;20211;-28
2022/12/03 04:00:14;;;;;;;12.80;7.33;;;;;;;;;;5019945;28;20203;-30
2022/12/03 04:02:41;;;;;;;12.40;8.23;;;;;;;;;;5013352;28;20211;-28
2022/12/03 04:05:11;;;;;;;11.93;7.30;;;;;;;;;;5022439;28;20210;-30
2022/12/03 04:07:38;;;;;;;13.93;7.60;;;;;;;;;;5024200;28;20207;-30
2022/12/03 04:12:54;;;;;;;14.73;8.37;;;;;;;;;;5014281;28;20211;-26
2022/12/03 04:13:04;;;;;;;14.23;8.27;;;;;;;;;;5018960;28;20257;-29
2022/12/03 04:15:31;;;;;;;15.87;8.27;;;;;;;;;;5004701;28;20216;-28
2022/12/03 04:20:45;;;;;;;15.17;8.20;;;;;;;;;;5013650;28;20222;-26
2022/12/03 04:23:12;;;;;;;13.07;7.40;;;;;;;;;;5015567;28;20294;-29
2022/12/03 04:36:39;;;;;;;12.83;8.03;;;;;;;;;;5001987;28;20688;-28
2022/12/03 04:39:07;;;;;;;14.27;8.27;;;;;;;;;;5016786;28;20207;-28
2022/12/03 04:41:36;;;;;;;13.33;8.13;;;;;;;;;;5009157;28;20227;-28
2022/12/03 04:46:48;;;;;;;13.30;7.73;;;;;;;;;;5004808;28;20218;-29
2022/12/03 04:49:15;;;;;;;12.03;8.20;;;;;;;;;;5014593;28;20202;-28
2022/12/03 04:51:42;;;;;;;12.37;7.87;;;;;;;;;;5014930;28;20804;-28
2022/12/03 04:54:09;;;;;;;13.43;8.50;;;;;;;;;;5010585;28;20211;-29
2022/12/03 04:56:37;;;;;;;13.80;7.63;;;;;;;;;;5008338;28;20208;-28
2022/12/03 04:59:04;;;;;;;12.57;7.50;;;;;;;;;;5020130;28;20211;-29
2022/12/03 05:01:32;;;;;;;14.67;7.43;;;;;;;;;;5006964;28;20314;-28
2022/12/03 05:03:59;;;;;;;14.43;7.53;;;;;;;;;;5017122;28;20217;-28
2022/12/03 05:06:26;;;;;;;12.27;7.53;;;;;;;;;;5029572;28;20212;-27
2022/12/03 05:08:53;;;;;;;12.53;7.40;;;;;;;;;;5024478;28;20208;-30
2022/12/03 05:11:20;;;;;;;14.63;7.90;;;;;;;;;;5010175;28;20230;-29
2022/12/03 05:13:50;;;;;;;14.43;8.57;;;;;;;;;;5031798;28;20210;-26
2022/12/03 05:16:17;;;;;;;14.23;8.10;;;;;;;;;;4999071;28;20320;-27
2022/12/03 05:18:44;;;;;;;13.10;7.40;;;;;;;;;;5011339;28;20394;-27
2022/12/03 05:21:11;;;;;;;12.33;8.17;;;;;;;;;;5014449;28;20231;-27
2022/12/03 05:23:38;;;;;;;12.10;7.67;;;;;;;;;;5014786;28;20259;-29
2022/12/03 05:26:05;;;;;;;15.73;8.80;;;;;;;;;;5012460;28;20213;-27
2022/12/03 05:28:32;;;;;;;13.17;8.07;;;;;;;;;;5017807;28;20215;-29
2022/12/03 05:31:01;;;;;;;13.70;8.40;;;;;;;;;;5006389;28;20229;-29
2022/12/03 05:33:28;;;;;;;15.00;9.07;;;;;;;;;;5013911;28;20209;-28
2022/12/03 05:35:55;;;;;;;14.83;8.60;;;;;;;;;;5011973;28;20221;-27
2022/12/03 05:38:22;;;;;;;15.50;8.77;;;;;;;;;;5019460;28;20211;-28
2022/12/03 05:40:49;;;;;;;13.70;8.77;;;;;;;;;;5015439;28;20262;-27
2022/12/03 05:43:15;;;;;;;14.77;9.17;;;;;;;;;;5013660;28;20204;-29
2022/12/03 05:45:44;;;;;;;13.40;8.57;;;;;;;;;;5008111;28;20205;-28
2022/12/03 05:48:13;;;;;;;15.10;8.17;;;;;;;;;;5124420;22;20234;-25
2022/12/03 05:50:42;;;;;;;16.30;8.40;;;;;;;;;;5050418;28;20221;-25
2022/12/03 05:53:09;;;;;;;17.53;9.37;;;;;;;;;;5060047;28;20206;-27
2022/12/03 05:55:37;;;;;;;14.03;8.63;;;;;;;;;;5046756;28;20260;-27
2022/12/03 05:58:04;;;;;;;12.83;8.13;;;;;;;;;;5045213;28;20209;-28
2022/12/03 06:00:32;;;;;;;15.70;9.07;;;;;;;;;;5049056;28;20249;-29
2022/12/03 06:03:00;;;;;;;14.87;9.03;;;;;;;;;;5057579;28;20206;-30
2022/12/03 06:05:28;;;;;;;15.33;9.10;;;;;;;;;;5066120;28;20469;-31
2022/12/03 06:07:56;;;;;;;16.83;8.80;;;;;;;;;;5060383;28;20209;-28
2022/12/03 06:10:23;;;;;;;16.77;9.07;;;;;;;;;;5033368;28;20699;-29
2022/12/03 06:12:51;;;;;;;15.57;9.30;;;;;;;;;;5037303;28;20569;-27
2022/12/03 06:15:18;;;;;;;16.20;9.20;;;;;;;;;;5059633;28;20281;-28
2022/12/03 06:17:45;;;;;;;16.90;9.27;;;;;;;;;;5053586;28;20660;-28
2022/12/03 06:20:14;;;;;;;16.77;8.83;;;;;;;;;;5052599;28;20289;-26
2022/12/03 06:22:42;;;;;;;15.67;9.47;;;;;;;;;;5052190;28;20298;-26
2022/12/03 06:25:10;;;;;;;19.07;10.03;;;;;;;;;;5043505;28;20276;-29
2022/12/03 06:27:37;;;;;;;18.97;10.30;;;;;;;;;;5053754;28;20212;-30
2022/12/03 06:30:05;;;;;;;17.30;10.33;;;;;;;;;;5043911;28;20214;-28
2022/12/03 06:32:32;;;;;;;20.63;11.07;;;;;;;;;;5044154;28;20202;-28
2022/12/03 06:34:59;;;;;;;21.30;10.93;;;;;;;;;;5062908;28;20224;-27
2022/12/03 06:37:26;;;;;;;22.87;11.53;;;;;;;;;;5063892;28;20213;-28
2022/12/03 06:39:54;;;;;;;16.90;9.80;;;;;;;;;;5048662;28;20208;-26
2022/12/03 06:42:21;;;;;;;20.33;10.50;;;;;;;;;;5056581;28;20710;-28
2022/12/03 06:44:49;;;;;;;19.43;10.00;;;;;;;;;;5050997;28;20198;-29
2022/12/03 06:47:16;;;;;;;20.77;11.00;;;;;;;;;;5050176;28;20218;-28
2022/12/03 06:49:43;;;;;;;20.00;9.90;;;;;;;;;;5060031;28;20205;-26
2022/12/03 06:52:10;;;;;;;20.10;11.80;;;;;;;;;;5052419;28;20671;-27
2022/12/03 06:54:37;;;;;;;21.40;11.50;;;;;;;;;;5052659;28;20300;-27
2022/12/03 06:57:06;;;;;;;17.80;9.40;;;;;;;;;;5052037;28;20211;-27
2022/12/03 06:59:35;;;;;;;22.70;11.83;;;;;;;;;;5067417;28;20207;-26
2022/12/03 07:02:02;;;;;;;23.20;12.27;;;;;;;;;;5051510;28;20229;-26
2022/12/03 07:04:31;;;;;;;22.17;10.97;;;;;;;;;;5072609;28;20197;-30
2022/12/03 07:06:59;;;;;;;20.10;10.60;;;;;;;;;;5045184;28;20212;-30
2022/12/03 07:09:26;;;;;;;20.97;11.30;;;;;;;;;;5045468;28;20202;-26
2022/12/03 07:11:53;;;;;;;18.00;9.93;;;;;;;;;;5051717;28;20258;-28
2022/12/03 07:14:22;;;;;;;22.47;10.27;;;;;;;;;;5052495;28;20205;-28
2022/12/03 07:16:49;;;;;;;18.30;10.43;;;;;;;;;;5042705;28;20230;-29
2022/12/03 07:19:16;;;;;;;18.20;10.87;;;;;;;;;;5071684;28;20730;-28
2022/12/03 07:21:43;;;;;;;19.97;10.67;;;;;;;;;;5056413;28;20228;-27
2022/12/03 07:24:11;;;;;;;18.30;11.40;;;;;;;;;;5060499;28;20289;-28
2022/12/03 07:26:38;;;;;;;21.13;10.83;;;;;;;;;;5057164;28;20228;-28
2022/12/03 07:29:05;;;;;;;19.83;10.77;;;;;;;;;;5071864;28;20632;-28
2022/12/03 07:31:34;;;;;;;18.03;10.80;;;;;;;;;;5046394;28;20223;-27
2022/12/03 07:34:01;;;;;;;21.00;11.90;;;;;;;;;;5055461;28;20236;-26
2022/12/03 07:36:28;;;;;;;18.67;10.87;;;;;;;;;;5053578;28;20705;-28
2022/12/03 07:38:55;;;;;;;20.83;11.00;;;;;;;;;;5058667;28;20205;-29
2022/12/03 07:41:22;;;;;;;20.20;11.80;;;;;;;;;;5062892;28;20248;-29
2022/12/03 07:43:49;;;;;;;19.93;11.60;;;;;;;;;;5057115;28;20206;-28
2022/12/03 07:46:16;;;;;;;20.40;11.10;;;;;;;;;;5048650;28;20201;-28
2022/12/03 07:48:45;;;;;;;22.23;11.63;;;;;;;;;;5055453;28;20201;-28
2022/12/03 07:51:12;;;;;;;23.23;12.27;;;;;;;;;;5055443;28;20222;-29
2022/12/03 07:53:39;;;;;;;25.60;13.03;;;;;;;;;;5053884;28;20206;-29
2022/12/03 07:56:07;;;;;;;23.73;13.67;;;;;;;;;;5056414;28;20217;-30
2022/12/03 07:58:34;;;;;;;25.23;13.63;;;;;;;;;;5055805;28;20203;-26
2022/12/03 08:01:01;;;;;;;24.30;13.70;;;;;;;;;;5039547;28;20706;-28
2022/12/03 08:03:28;;;;;;;22.27;13.03;;;;;;;;;;5050712;28;20201;-27
2022/12/03 08:06:04;;;;;;;25.57;13.07;;;;;;;;;;5055039;28;20308;-28
2022/12/03 08:08:31;;;;;;;20.10;11.17;;;;;;;;;;5052182;28;20201;-26
2022/12/03 08:10:58;;;;;;;22.03;12.10;;;;;;;;;;5043309;28;20230;-27
2022/12/03 08:13:25;;;;;;;24.03;11.40;;;;;;;;;;5049671;28;20207;-28
2022/12/03 08:15:52;;;;;;;25.33;13.60;;;;;;;;;;5048097;28;20222;-26
2022/12/03 08:18:21;;;;;;;19.83;9.80;;;;;;;;;;5051326;28;20220;-28
2022/12/03 08:20:52;;;;;;;19.70;11.60;;;;;;;;;;5045298;28;20230;-28
2022/12/03 08:23:21;;;;;;;24.53;13.30;;;;;;;;;;5037507;28;20207;-26
2022/12/03 08:25:48;;;;;;;21.57;12.27;;;;;;;;;;5054828;28;20212;-27
2022/12/03 08:28:18;;;;;;;21.57;11.23;;;;;;;;;;5054695;28;20206;-27
2022/12/03 08:30:47;;;;;;;16.70;10.67;;;;;;;;;;5051556;28;20225;-28
2022/12/03 08:33:18;;;;;;;18.50;10.97;;;;;;;;;;5060276;28;20224;-26
2022/12/03 08:35:49;;;;;;;17.27;9.57;;;;;;;;;;5053605;28;20226;-27
2022/12/03 08:38:18;;;;;;;19.97;10.90;;;;;;;;;;5056721;28;20206;-27
2022/12/03 08:40:48;;;;;;;18.40;11.37;;;;;;;;;;5065276;28;20225;-27
2022/12/03 08:43:18;;;;;;;19.53;11.13;;;;;;;;;;5057187;28;20687;-29
2022/12/03 08:45:45;;;;;;;18.43;10.80;;;;;;;;;;5052770;28;20281;-27
2022/12/03 08:48:31;;;;;;;18.50;9.77;;;;;;;;;;5049438;28;20221;-28
2022/12/03 08:51:00;;;;;;;18.87;10.67;;;;;;;;;;5045332;28;20232;-28
2022/12/03 08:53:32;;;;;;;19.40;11.00;;;;;;;;;;5054791;28;20627;-28
2022/12/03 08:56:01;;;;;;;16.50;10.70;;;;;;;;;;5051125;28;20267;-26
2022/12/03 08:58:33;;;;;;;20.70;11.80;;;;;;;;;;5050000;28;20273;-26
2022/12/03 09:01:03;;;;;;;18.50;9.90;;;;;;;;;;5058470;28;20237;-28
2022/12/03 09:03:31;;;;;;;18.70;10.80;;;;;;;;;;5067755;28;20212;-28
2022/12/03 09:05:58;;;;;;;14.27;8.50;;;;;;;;;;5055048;28;20216;-28
2022/12/03 09:08:32;;;;;;;18.83;10.57;;;;;;;;;;5048381;28;20296;-28
2022/12/03 09:13:45;;;;;;;19.23;10.73;;;;;;;;;;5063429;28;20710;-27
2022/12/03 09:16:12;;;;;;;17.77;9.47;;;;;;;;;;5048673;28;20678;-27
2022/12/03 09:18:39;;;;;;;20.10;9.63;;;;;;;;;;5062350;28;20259;-27
2022/12/03 09:21:06;;;;;;;16.90;10.10;;;;;;;;;;5064202;28;20234;-27
2022/12/03 09:23:33;;;;;;;13.87;8.57;;;;;;;;;;5061799;28;20209;-26
2022/12/03 09:26:01;;;;;;;16.10;9.40;;;;;;;;;;5048880;28;20209;-28
2022/12/03 09:28:29;;;;;;;17.93;10.37;;;;;;;;;;5047487;28;20205;-28
2022/12/03 09:30:56;;;;;;;17.53;10.20;;;;;;;;;;5046245;28;20276;-26
2022/12/03 09:33:23;;;;;;;18.83;10.43;;;;;;;;;;5052141;28;20206;-27
2022/12/03 09:35:50;;;;;;;17.50;9.70;;;;;;;;;;5054380;28;20706;-29
2022/12/03 09:38:18;;;;;;;21.03;11.10;;;;;;;;;;5051656;28;20209;-29
2022/12/03 09:40:45;;;;;;;18.90;10.97;;;;;;;;;;5055715;28;20312;-27
2022/12/03 09:43:12;;;;;;;15.93;8.87;;;;;;;;;;5043329;28;20203;-30
2022/12/03 09:45:41;;;;;;;22.40;10.17;;;;;;;;;;5040685;28;20194;-27
2022/12/03 09:48:08;;;;;;;19.93;10.27;;;;;;;;;;5046530;28;20214;-28
2022/12/03 09:50:38;;;;;;;18.00;10.97;;;;;;;;;;5048300;28;20312;-28
2022/12/03 09:53:05;;;;;;;14.77;8.70;;;;;;;;;;5050360;28;20217;-28
2022/12/03 09:55:32;;;;;;;15.43;8.53;;;;;;;;;;5050411;28;20217;-26
2022/12/03 09:58:01;;;;;;;17.20;9.90;;;;;;;;;;5040591;28;20790;-28
2022/12/03 10:00:29;;;;;;;17.63;9.77;;;;;;;;;;5041864;28;20227;-28
2022/12/03 10:02:59;;;;;;;17.80;9.03;;;;;;;;;;5056057;28;20213;-27
2022/12/03 10:05:27;;;;;;;17.77;9.30;;;;;;;;;;5049420;28;20210;-27
2022/12/03 10:07:54;;;;;;;16.97;9.50;;;;;;;;;;5036438;28;20210;-27
2022/12/03 10:10:22;;;;;;;18.63;9.33;;;;;;;;;;5048465;28;20228;-28
2022/12/03 10:12:50;;;;;;;16.33;9.37;;;;;;;;;;5059476;28;20202;-28
2022/12/03 10:15:20;;;;;;;16.93;8.20;;;;;;;;;;5040885;28;20217;-30
2022/12/03 10:17:50;;;;;;;16.60;9.63;;;;;;;;;;5055173;28;20206;-29
2022/12/03 10:20:20;;;;;;;15.60;8.10;;;;;;;;;;5038128;28;20206;-27
2022/12/03 10:22:48;;;;;;;17.03;9.27;;;;;;;;;;5028506;28;20557;-28
2022/12/03 10:25:17;;;;;;;16.03;7.87;;;;;;;;;;5034951;28;20691;-28
2022/12/03 10:27:55;;;;;;;16.80;9.23;;;;;;;;;;5059297;28;20201;-27
2022/12/03 10:30:27;;;;;;;14.50;7.20;;;;;;;;;;5038672;28;20273;-29
2022/12/03 10:32:54;;;;;;;17.33;8.60;;;;;;;;;;5044325;28;20269;-28
2022/12/03 10:35:24;;;;;;;14.13;7.33;;;;;;;;;;5052292;28;20202;-27
2022/12/03 10:37:58;;;;;;;17.40;8.87;;;;;;;;;;5053326;28;20230;-27
2022/12/03 10:40:37;;;;;;;11.90;6.77;;;;;;;;;;5046347;28;20225;-30
2022/12/03 10:43:34;;;;;;;16.87;8.50;;;;;;;;;;5047446;28;20204;-26
2022/12/03 10:46:11;;;;;;;17.47;8.93;;;;;;;;;;5045020;28;20201;-29
2022/12/03 10:48:38;;;;;;;17.77;8.17;;;;;;;;;;5050153;28;20340;-27
2022/12/03 10:51:10;;;;;;;12.73;7.53;;;;;;;;;;5046661;28;20218;-28
2022/12/03 10:53:41;;;;;;;18.67;8.67;;;;;;;;;;5055235;28;20199;-28
2022/12/03 10:56:08;;;;;;;13.40;6.40;;;;;;;;;;5050228;28;20224;-28
2022/12/03 10:58:37;;;;;;;11.20;6.43;;;;;;;;;;5050066;28;20214;-27
2022/12/03 11:01:06;;;;;;;12.70;6.97;;;;;;;;;;5042927;28;20235;-27
2022/12/03 11:03:35;;;;;;;15.83;8.77;;;;;;;;;;5049403;28;20206;-27
2022/12/03 11:06:10;;;;;;;14.90;7.67;;;;;;;;;;5052563;28;20197;-29
2022/12/03 11:08:38;;;;;;;13.90;7.83;;;;;;;;;;5049419;28;20296;-29
2022/12/03 11:11:16;;;;;;;13.33;7.33;;;;;;;;;;5058695;28;20228;-28
2022/12/03 11:13:51;;;;;;;15.23;8.77;;;;;;;;;;5065058;28;20687;-26
2022/12/03 11:16:36;;;;;;;15.83;7.63;;;;;;;;;;5045388;28;20405;-25
2022/12/03 11:19:03;;;;;;;16.27;8.97;;;;;;;;;;5063327;28;20197;-29
2022/12/03 11:21:34;;;;;;;13.43;7.30;;;;;;;;;;5045536;28;20232;-27
2022/12/03 11:24:18;;;;;;;13.33;8.23;;;;;;;;;;5052342;28;20240;-27
2022/12/03 11:27:09;;;;;;;12.50;7.30;;;;;;;;;;5059305;28;20213;-27
2022/12/03 11:30:02;;;;;;;16.80;8.40;;;;;;;;;;5037302;28;20259;-28
2022/12/03 11:32:48;;;;;;;16.63;8.57;;;;;;;;;;5043032;28;20198;-28
2022/12/03 11:35:15;;;;;;;16.33;9.13;;;;;;;;;;5051215;28;20216;-29
2022/12/03 11:37:43;;;;;;;15.63;8.53;;;;;;;;;;5049671;28;20222;-27
2022/12/03 11:46:24;;;;;;;16.47;8.27;;;;;;;;;;5049722;28;20200;-29
2022/12/03 11:48:54;;;;;;;16.17;8.60;;;;;;;;;;5047134;28;20205;-27
2022/12/03 11:51:44;;;;;;;17.40;10.00;;;;;;;;;;5060963;28;20221;-29
2022/12/03 11:54:15;;;;;;;15.63;8.50;;;;;;;;;;5043309;28;20202;-27
2022/12/03 11:56:44;;;;;;;15.97;7.50;;;;;;;;;;5051373;28;20876;-29
2022/12/03 11:59:12;;;;;;;15.40;8.63;;;;;;;;;;5067013;28;20280;-25
2022/12/03 12:01:41;;;;;;;15.77;7.87;;;;;;;;;;5046502;28;20336;-27
2022/12/03 12:04:26;;;;;;;14.97;7.87;;;;;;;;;;5053300;28;20236;-27
2022/12/03 12:06:53;;;;;;;18.23;8.83;;;;;;;;;;5074032;28;20205;-28
2022/12/03 12:09:35;;;;;;;16.20;8.47;;;;;;;;;;5061207;28;20206;-27
2022/12/03 12:12:17;;;;;;;17.50;8.17;;;;;;;;;;5048917;28;20226;-28
2022/12/03 12:14:44;;;;;;;17.10;8.63;;;;;;;;;;5052071;28;20196;-30
2022/12/03 12:17:26;;;;;;;15.20;8.03;;;;;;;;;;5052737;28;20217;-27
2022/12/03 12:20:13;;;;;;;16.67;8.63;;;;;;;;;;5055002;28;20285;-28
2022/12/03 12:22:53;;;;;;;15.83;8.90;;;;;;;;;;5066754;28;20240;-26
2022/12/03 12:25:40;;;;;;;17.73;8.87;;;;;;;;;;5043019;28;20194;-26
2022/12/03 12:28:15;;;;;;;10.43;5.33;;;;;;;;;;5052856;28;20194;-28
2022/12/03 12:30:44;;;;;;;15.37;7.50;;;;;;;;;;5054733;28;20222;-28
2022/12/03 12:33:21;;;;;;;17.57;8.93;;;;;;;;;;5055528;28;20196;-28
2022/12/03 12:35:49;;;;;;;16.83;8.17;;;;;;;;;;5055167;28;20271;-27
2022/12/03 12:38:17;;;;;;;17.67;9.53;;;;;;;;;;5063558;28;20217;-26
2022/12/03 12:40:48;;;;;;;16.90;9.30;;;;;;;;;;5051459;28;20224;-28
2022/12/03 12:43:32;;;;;;;16.63;7.53;;;;;;;;;;5046992;28;20209;-28
2022/12/03 12:46:02;;;;;;;12.20;6.10;;;;;;;;;;5053889;28;20673;-27
2022/12/03 12:48:35;;;;;;;13.40;6.13;;;;;;;;;;5061575;28;20205;-27
2022/12/03 12:51:09;;;;;;;17.40;8.90;;;;;;;;;;5044260;28;20230;-27
2022/12/03 12:53:37;;;;;;;17.57;8.67;;;;;;;;;;5057331;28;20197;-26
2022/12/03 12:56:20;;;;;;;16.97;8.37;;;;;;;;;;5064392;28;20212;-27
2022/12/03 12:58:47;;;;;;;18.93;8.43;;;;;;;;;;5045801;28;20327;-28
2022/12/03 13:01:20;;;;;;;16.10;8.57;;;;;;;;;;5046043;28;20230;-27
2022/12/03 13:03:50;;;;;;;17.43;8.73;;;;;;;;;;5061453;28;20201;-26
2022/12/03 13:06:17;;;;;;;18.07;9.33;;;;;;;;;;5074539;28;20578;-27
2022/12/03 13:08:45;;;;;;;20.23;10.30;;;;;;;;;;5050750;28;20309;-28
2022/12/03 13:11:21;;;;;;;16.10;8.53;;;;;;;;;;5031181;28;20219;-29
2022/12/03 13:13:48;;;;;;;16.30;8.87;;;;;;;;;;5044188;28;20204;-26
2022/12/03 13:16:18;;;;;;;17.80;9.33;;;;;;;;;;5047624;28;20213;-27
2022/12/03 13:18:46;;;;;;;16.33;7.97;;;;;;;;;;5053940;28;20196;-26
2022/12/03 13:21:24;;;;;;;16.50;8.73;;;;;;;;;;5033939;28;20227;-27
2022/12/03 13:23:53;;;;;;;14.87;8.50;;;;;;;;;;5033707;28;20202;-25
2022/12/03 13:26:22;;;;;;;17.10;8.53;;;;;;;;;;5041928;28;20210;-27
2022/12/03 13:28:50;;;;;;;18.73;9.17;;;;;;;;;;5052817;28;20206;-27
2022/12/03 13:31:24;;;;;;;18.43;10.07;;;;;;;;;;5048582;28;20246;-26
2022/12/03 13:33:52;;;;;;;16.13;8.90;;;;;;;;;;5051668;28;20651;-29
2022/12/03 13:36:20;;;;;;;16.10;8.57;;;;;;;;;;5053925;28;20214;-27
2022/12/03 13:38:48;;;;;;;17.83;9.67;;;;;;;;;;5042363;28;20207;-28
2022/12/03 13:43:59;;;;;;;13.20;8.20;;;;;;;;;;5059321;28;20197;-30
2022/12/03 13:46:26;;;;;;;16.40;9.70;;;;;;;;;;5055483;28;20206;-28
2022/12/03 13:48:53;;;;;;;13.63;8.00;;;;;;;;;;5050719;28;20213;-26
2022/12/03 13:51:26;;;;;;;12.80;7.23;;;;;;;;;;5053263;28;20226;-29
2022/12/03 13:53:53;;;;;;;12.77;7.53;;;;;;;;;;5047877;28;20290;-29
2022/12/03 13:56:26;;;;;;;16.67;9.07;;;;;;;;;;5044168;28;20206;-29
2022/12/03 13:58:53;;;;;;;16.77;8.43;;;;;;;;;;5052239;28;20190;-27
2022/12/03 14:01:21;;;;;;;16.17;7.83;;;;;;;;;;5046077;28;20263;-27
2022/12/03 14:03:49;;;;;;;16.17;8.40;;;;;;;;;;5067981;28;20197;-28
2022/12/03 14:06:16;;;;;;;18.23;8.63;;;;;;;;;;5052007;28;20202;-26
2022/12/03 14:08:43;;;;;;;14.57;8.10;;;;;;;;;;5043715;28;20208;-30
2022/12/03 14:12:24;;;;;;;15.40;8.73;;;;;;;;;;5058258;28;20238;-29
2022/12/03 14:13:58;;;;;;;17.57;9.07;;;;;;;;;;5060670;28;20201;-30
2022/12/03 14:16:41;;;;;;;15.53;8.70;;;;;;;;;;5029766;28;20275;-26
2022/12/03 14:19:08;;;;;;;16.33;8.80;;;;;;;;;;5062831;28;20197;-28
2022/12/03 14:21:35;;;;;;;14.83;8.17;;;;;;;;;;5072258;28;20229;-29
2022/12/03 14:24:03;;;;;;;14.67;8.10;;;;;;;;;;5057077;28;20213;-30
2022/12/03 14:26:30;;;;;;;13.63;8.50;;;;;;;;;;5052992;28;20206;-30
2022/12/03 14:31:23;;;;;;;11.83;7.00;;;;;;;;;;5272027;22;20261;-25
2022/12/03 14:33:52;;;;;;;10.80;6.70;;;;;;;;;;5029497;28;20209;-25
2022/12/03 14:36:19;;;;;;;11.93;7.10;;;;;;;;;;5032165;28;20206;-24
2022/12/03 14:38:46;;;;;;;12.93;6.80;;;;;;;;;;5019721;28;20285;-23
2022/12/03 14:43:54;;;;;;;14.43;7.70;;;;;;;;;;5029171;28;20190;-22
2022/12/03 14:46:22;;;;;;;18.00;8.53;;;;;;;;;;5021337;28;20207;-23
2022/12/03 14:48:49;;;;;;;12.33;6.90;;;;;;;;;;5029172;28;20209;-25
2022/12/03 14:51:17;;;;;;;13.93;8.57;;;;;;;;;;5031463;28;20227;-23
2022/12/03 14:53:44;;;;;;;13.83;8.40;;;;;;;;;;5031038;28;20211;-23
2022/12/03 14:56:12;;;;;;;14.97;8.53;;;;;;;;;;5030893;28;20203;-25
2022/12/03 14:58:39;;;;;;;13.17;7.97;;;;;;;;;;5030769;28;20225;-24
2022/12/03 15:01:06;;;;;;;15.23;7.93;;;;;;;;;;5034944;28;20305;-25
2022/12/03 15:03:33;;;;;;;15.43;8.03;;;;;;;;;;5033030;28;20207;-23
2022/12/03 15:06:00;;;;;;;14.80;8.07;;;;;;;;;;5040104;28;20210;-24
2022/12/03 15:08:29;;;;;;;11.53;7.33;;;;;;;;;;5024199;28;20445;-23
2022/12/03 15:10:56;;;;;;;11.57;6.03;;;;;;;;;;5022575;28;20222;-23
2022/12/03 15:13:23;;;;;;;13.93;7.23;;;;;;;;;;5032052;28;20202;-26
2022/12/03 15:15:50;;;;;;;13.03;8.23;;;;;;;;;;5023585;28;20209;-26
2022/12/03 15:18:18;;;;;;;12.53;7.80;;;;;;;;;;5031499;28;20214;-26